DAL3991 KSEA-KLAX
Flight info
| Callsign | DAL3991 |
|---|---|
| Flight time | 2h 13m |
| Altitude | 37000 |
| Route | OZWLD1 OZWLD KPOWW SEA152033 JINMO Q7 JAGWA BURGL IRNMN2 |
| Aircraft | A20N/M-SDE2E3FGHIRWXY/LB1 |
Departure
| Time | 2026-05-04 05:48 |
|---|---|
| Airport | Seattle–Tacoma International Airport (KSEA) |
Arrival
| Time | 2026-05-04 08:02 |
|---|---|
| Airport | Los Angeles International Airport (KLAX) |
| Time | Latitude | Longitude | Altitude | Speed | Heading |
|---|---|---|---|---|---|
| 2026-05-04 05:22 | 47.44056 | -122.30384 | 390 ft | 0 kts | 12° |
| 2026-05-04 05:36 | 47.44052 | -122.30386 | 390 ft | 2 kts | 12° |
| 2026-05-04 05:36 | 47.44034 | -122.30391 | 389 ft | 3 kts | 9° |
| 2026-05-04 05:37 | 47.44014 | -122.30396 | 389 ft | 2 kts | 12° |
| 2026-05-04 05:37 | 47.43997 | -122.30402 | 389 ft | 3 kts | 30° |
| 2026-05-04 05:37 | 47.43985 | -122.30418 | 389 ft | 3 kts | 82° |
| 2026-05-04 05:38 | 47.43991 | -122.30472 | 388 ft | 2 kts | 94° |
| 2026-05-04 05:38 | 47.43992 | -122.30479 | 388 ft | 0 kts | 90° |
| 2026-05-04 05:41 | 47.43992 | -122.30478 | 388 ft | 1 kts | 90° |
| 2026-05-04 05:42 | 47.43993 | -122.30390 | 389 ft | 11 kts | 85° |
| 2026-05-04 05:42 | 47.44015 | -122.30285 | 391 ft | 10 kts | 59° |
| 2026-05-04 05:42 | 47.44052 | -122.30167 | 393 ft | 17 kts | 86° |
| 2026-05-04 05:42 | 47.43974 | -122.29997 | 393 ft | 22 kts | 134° |
| 2026-05-04 05:43 | 47.43840 | -122.29970 | 390 ft | 21 kts | 190° |
| 2026-05-04 05:43 | 47.43758 | -122.30081 | 386 ft | 16 kts | 264° |
| 2026-05-04 05:43 | 47.43734 | -122.30249 | 385 ft | 17 kts | 257° |
| 2026-05-04 05:45 | 47.43316 | -122.30563 | 369 ft | 15 kts | 179° |
| 2026-05-04 05:45 | 47.43273 | -122.30563 | 368 ft | 3 kts | 183° |
| 2026-05-04 05:47 | 47.43189 | -122.30803 | 366 ft | 10 kts | 336° |
| 2026-05-04 05:47 | 47.43275 | -122.30805 | 362 ft | 25 kts | 0° |
| 2026-05-04 05:47 | 47.43691 | -122.30801 | 374 ft | 92 kts | 0° |
| 2026-05-04 05:48 | 47.44526 | -122.30795 | 401 ft | 146 kts | 0° |
| 2026-05-04 05:48 | 47.45637 | -122.30781 | 664 ft | 165 kts | 2° |
| 2026-05-04 05:48 | 47.46794 | -122.30715 | 1236 ft | 168 kts | 3° |
| 2026-05-04 05:48 | 47.47971 | -122.30709 | 1860 ft | 172 kts | 357° |
| 2026-05-04 05:49 | 47.49210 | -122.30860 | 2495 ft | 183 kts | 353° |
| 2026-05-04 05:49 | 47.50517 | -122.31028 | 3144 ft | 196 kts | 355° |
| 2026-05-04 05:49 | 47.51948 | -122.31185 | 3688 ft | 218 kts | 355° |
| 2026-05-04 05:49 | 47.53527 | -122.31367 | 4284 ft | 238 kts | 358° |
| 2026-05-04 05:51 | 47.61674 | -122.43958 | 8955 ft | 288 kts | 272° |
| 2026-05-04 05:51 | 47.61382 | -122.46887 | 8979 ft | 290 kts | 250° |
| 2026-05-04 05:52 | 47.60325 | -122.49430 | 8983 ft | 292 kts | 230° |
| 2026-05-04 05:52 | 47.58929 | -122.51625 | 8980 ft | 294 kts | 225° |
| 2026-05-04 05:52 | 47.57474 | -122.53760 | 8980 ft | 294 kts | 225° |
| 2026-05-04 05:52 | 47.56022 | -122.55889 | 8987 ft | 294 kts | 225° |
| 2026-05-04 05:53 | 47.54568 | -122.58028 | 9121 ft | 296 kts | 225° |
| 2026-05-04 05:54 | 47.40479 | -122.59581 | 14014 ft | 366 kts | 146° |
| 2026-05-04 05:55 | 47.38339 | -122.57469 | 14761 ft | 371 kts | 145° |
| 2026-05-04 05:55 | 47.36182 | -122.55341 | 15517 ft | 376 kts | 145° |
| 2026-05-04 05:55 | 47.33970 | -122.53223 | 16290 ft | 380 kts | 146° |
| 2026-05-04 05:55 | 47.31715 | -122.51133 | 17052 ft | 385 kts | 147° |
| 2026-05-04 05:56 | 47.29420 | -122.49063 | 17802 ft | 389 kts | 148° |
| 2026-05-04 05:56 | 47.27875 | -122.47690 | 18279 ft | 392 kts | 148° |
| 2026-05-04 05:56 | 47.24746 | -122.44938 | 19127 ft | 399 kts | 148° |
| 2026-05-04 05:56 | 47.22352 | -122.42841 | 19801 ft | 402 kts | 147° |
| 2026-05-04 05:57 | 47.19936 | -122.40729 | 20443 ft | 406 kts | 147° |
| 2026-05-04 05:57 | 47.17494 | -122.38592 | 21070 ft | 410 kts | 147° |
| 2026-05-04 05:57 | 47.15863 | -122.37163 | 21483 ft | 412 kts | 147° |
| 2026-05-04 05:57 | 47.13389 | -122.34996 | 22105 ft | 416 kts | 147° |
| 2026-05-04 05:58 | 47.10887 | -122.32806 | 22734 ft | 420 kts | 147° |
| 2026-05-04 05:58 | 47.08365 | -122.30600 | 23358 ft | 424 kts | 146° |
| 2026-05-04 05:58 | 47.05821 | -122.28377 | 23888 ft | 428 kts | 146° |
| 2026-05-04 05:58 | 47.03250 | -122.26134 | 24415 ft | 431 kts | 146° |
| 2026-05-04 05:59 | 47.00666 | -122.23883 | 24904 ft | 434 kts | 146° |
| 2026-05-04 05:59 | 46.98087 | -122.21550 | 25374 ft | 436 kts | 142° |
| 2026-05-04 05:59 | 46.95601 | -122.18987 | 25851 ft | 439 kts | 141° |
| 2026-05-04 05:59 | 46.93045 | -122.16506 | 26308 ft | 444 kts | 147° |
| 2026-05-04 06:00 | 46.90247 | -122.14525 | 26757 ft | 451 kts | 156° |
| 2026-05-04 06:00 | 46.87249 | -122.13277 | 27194 ft | 458 kts | 167° |
| 2026-05-04 06:00 | 46.84070 | -122.12771 | 27680 ft | 461 kts | 174° |
| 2026-05-04 06:00 | 46.80845 | -122.12576 | 28087 ft | 465 kts | 176° |
| 2026-05-04 06:01 | 46.77593 | -122.12539 | 28507 ft | 469 kts | 178° |
| 2026-05-04 06:01 | 46.74321 | -122.12572 | 28936 ft | 471 kts | 178° |
| 2026-05-04 06:03 | 46.50884 | -122.12611 | 31611 ft | 483 kts | 176° |
| 2026-05-04 06:03 | 46.47515 | -122.12588 | 31990 ft | 484 kts | 176° |
| 2026-05-04 06:05 | 46.24269 | -122.09477 | 34490 ft | 479 kts | 165° |
| 2026-05-04 06:05 | 46.17702 | -122.07874 | 35079 ft | 479 kts | 165° |
| 2026-05-04 06:05 | 46.14427 | -122.07081 | 35517 ft | 475 kts | 165° |
| 2026-05-04 06:06 | 46.11166 | -122.06297 | 35872 ft | 474 kts | 165° |
| 2026-05-04 06:06 | 46.07903 | -122.05516 | 36087 ft | 476 kts | 165° |
| 2026-05-04 06:06 | 46.04628 | -122.04735 | 36316 ft | 477 kts | 165° |
| 2026-05-04 06:06 | 46.01350 | -122.03954 | 36544 ft | 477 kts | 165° |
| 2026-05-04 06:07 | 45.98071 | -122.03176 | 36784 ft | 478 kts | 165° |
| 2026-05-04 06:07 | 45.91475 | -122.01614 | 36858 ft | 477 kts | 165° |
| 2026-05-04 06:08 | 45.84977 | -122.00087 | 36855 ft | 475 kts | 165° |
| 2026-05-04 06:08 | 45.78451 | -121.98543 | 36842 ft | 474 kts | 165° |
| 2026-05-04 06:09 | 45.71971 | -121.97012 | 36849 ft | 473 kts | 166° |
| 2026-05-04 06:11 | 45.46086 | -121.90955 | 36860 ft | 467 kts | 166° |
| 2026-05-04 06:13 | 45.20552 | -121.85029 | 36883 ft | 463 kts | 166° |
| 2026-05-04 06:14 | 44.98300 | -121.79914 | 36895 ft | 461 kts | 167° |
| 2026-05-04 06:15 | 44.91993 | -121.78471 | 36904 ft | 461 kts | 167° |
| 2026-05-04 06:15 | 44.85659 | -121.77025 | 36907 ft | 461 kts | 167° |
| 2026-05-04 06:16 | 44.79337 | -121.75585 | 36909 ft | 460 kts | 167° |
| 2026-05-04 06:16 | 44.73002 | -121.74145 | 36910 ft | 460 kts | 167° |
| 2026-05-04 06:17 | 44.66711 | -121.72719 | 36916 ft | 460 kts | 167° |
| 2026-05-04 06:17 | 44.60381 | -121.71287 | 36901 ft | 459 kts | 167° |
| 2026-05-04 06:18 | 44.54071 | -121.69862 | 36910 ft | 459 kts | 167° |
| 2026-05-04 06:20 | 44.28834 | -121.64184 | 36910 ft | 459 kts | 167° |
| 2026-05-04 06:21 | 44.13071 | -121.60519 | 36923 ft | 459 kts | 167° |
| 2026-05-04 06:22 | 44.06808 | -121.59072 | 36927 ft | 459 kts | 167° |
| 2026-05-04 06:25 | 43.62742 | -121.48989 | 36913 ft | 457 kts | 167° |
| 2026-05-04 06:26 | 43.56498 | -121.47572 | 36905 ft | 457 kts | 167° |
| 2026-05-04 06:26 | 43.50215 | -121.46149 | 36904 ft | 457 kts | 167° |
| 2026-05-04 06:27 | 43.34562 | -121.42618 | 36894 ft | 456 kts | 167° |
| 2026-05-04 06:28 | 43.28292 | -121.41209 | 36891 ft | 456 kts | 167° |
| 2026-05-04 06:28 | 43.22022 | -121.39802 | 36895 ft | 456 kts | 167° |
| 2026-05-04 06:29 | 43.15739 | -121.38396 | 36891 ft | 456 kts | 167° |
| 2026-05-04 06:29 | 43.09467 | -121.36995 | 36890 ft | 456 kts | 167° |
| 2026-05-04 06:30 | 43.03229 | -121.35604 | 36893 ft | 457 kts | 167° |
| 2026-05-04 06:30 | 42.96949 | -121.34206 | 36892 ft | 457 kts | 167° |
| 2026-05-04 06:31 | 42.90672 | -121.32813 | 36891 ft | 457 kts | 167° |
| 2026-05-04 06:31 | 42.84383 | -121.31420 | 36888 ft | 457 kts | 168° |
| 2026-05-04 06:33 | 42.59303 | -121.25893 | 36884 ft | 455 kts | 168° |
| 2026-05-04 06:34 | 42.53054 | -121.24524 | 36886 ft | 455 kts | 168° |
| 2026-05-04 06:34 | 42.46793 | -121.23153 | 36894 ft | 454 kts | 168° |
| 2026-05-04 06:36 | 42.21930 | -121.17739 | 36880 ft | 452 kts | 168° |
| 2026-05-04 06:37 | 42.15751 | -121.16401 | 36880 ft | 452 kts | 168° |
| 2026-05-04 06:37 | 42.09535 | -121.15057 | 36887 ft | 452 kts | 169° |
| 2026-05-04 06:38 | 42.03337 | -121.13720 | 36889 ft | 450 kts | 169° |
| 2026-05-04 06:40 | 41.78623 | -121.08413 | 36911 ft | 448 kts | 169° |
| 2026-05-04 06:40 | 41.72505 | -121.07105 | 36927 ft | 448 kts | 169° |
| 2026-05-04 06:41 | 41.66340 | -121.05791 | 36925 ft | 448 kts | 169° |
| 2026-05-04 06:41 | 41.60167 | -121.04477 | 36925 ft | 448 kts | 169° |
| 2026-05-04 06:42 | 41.54028 | -121.03172 | 36949 ft | 449 kts | 169° |
| 2026-05-04 06:44 | 41.29284 | -120.97941 | 36946 ft | 450 kts | 169° |
| 2026-05-04 06:44 | 41.24134 | -120.96857 | 36955 ft | 450 kts | 169° |
| 2026-05-04 06:45 | 41.17930 | -120.95554 | 36959 ft | 450 kts | 169° |
| 2026-05-04 06:45 | 41.11750 | -120.94259 | 36952 ft | 448 kts | 169° |
| 2026-05-04 06:46 | 41.05619 | -120.92977 | 36956 ft | 448 kts | 169° |
| 2026-05-04 06:46 | 40.99443 | -120.91854 | 36964 ft | 448 kts | 173° |
| 2026-05-04 06:48 | 40.74613 | -120.89789 | 36952 ft | 446 kts | 175° |
| 2026-05-04 06:50 | 40.49794 | -120.87815 | 36971 ft | 447 kts | 175° |
| 2026-05-04 06:51 | 40.43626 | -120.87327 | 36976 ft | 447 kts | 175° |
| 2026-05-04 06:51 | 40.37419 | -120.86837 | 36979 ft | 447 kts | 175° |
| 2026-05-04 06:52 | 40.31204 | -120.86347 | 36975 ft | 447 kts | 175° |
| 2026-05-04 06:52 | 40.24990 | -120.85858 | 36981 ft | 446 kts | 175° |
| 2026-05-04 06:53 | 40.18844 | -120.85376 | 36966 ft | 442 kts | 175° |
| 2026-05-04 06:53 | 40.12680 | -120.84895 | 36957 ft | 441 kts | 175° |
| 2026-05-04 06:54 | 40.06586 | -120.84419 | 36957 ft | 441 kts | 175° |
| 2026-05-04 06:54 | 40.00461 | -120.83939 | 36954 ft | 440 kts | 175° |
| 2026-05-04 06:55 | 39.94348 | -120.83461 | 36953 ft | 440 kts | 175° |
| 2026-05-04 06:55 | 39.88237 | -120.82985 | 36958 ft | 440 kts | 175° |
| 2026-05-04 06:57 | 39.63798 | -120.81085 | 36956 ft | 441 kts | 176° |
| 2026-05-04 06:58 | 39.57656 | -120.80607 | 36953 ft | 442 kts | 176° |
| 2026-05-04 06:58 | 39.51518 | -120.80134 | 36958 ft | 442 kts | 176° |
| 2026-05-04 06:59 | 39.45415 | -120.79666 | 36955 ft | 441 kts | 176° |
| 2026-05-04 06:59 | 39.39281 | -120.79195 | 36951 ft | 441 kts | 176° |
| 2026-05-04 07:01 | 39.17889 | -120.77558 | 37055 ft | 439 kts | 178° |
| 2026-05-04 07:01 | 39.14834 | -120.77326 | 37045 ft | 439 kts | 178° |
| 2026-05-04 07:02 | 39.08735 | -120.76861 | 37018 ft | 438 kts | 178° |
| 2026-05-04 07:02 | 39.02653 | -120.76399 | 36996 ft | 438 kts | 178° |
| 2026-05-04 07:03 | 38.96566 | -120.75938 | 36999 ft | 438 kts | 178° |
| 2026-05-04 07:03 | 38.90521 | -120.75480 | 37015 ft | 437 kts | 179° |
| 2026-05-04 07:04 | 38.84455 | -120.75021 | 37033 ft | 436 kts | 179° |
| 2026-05-04 07:04 | 38.78405 | -120.74564 | 37044 ft | 435 kts | 179° |
| 2026-05-04 07:05 | 38.72349 | -120.74109 | 37034 ft | 435 kts | 179° |
| 2026-05-04 07:05 | 38.66309 | -120.73654 | 36989 ft | 433 kts | 179° |
| 2026-05-04 07:06 | 38.57285 | -120.72978 | 37008 ft | 433 kts | 179° |
| 2026-05-04 07:07 | 38.51274 | -120.72529 | 37017 ft | 433 kts | 179° |
| 2026-05-04 07:09 | 38.27285 | -120.70740 | 37023 ft | 431 kts | 180° |
| 2026-05-04 07:09 | 38.21300 | -120.70296 | 37017 ft | 430 kts | 180° |
| 2026-05-04 07:10 | 38.15321 | -120.69852 | 37015 ft | 430 kts | 180° |
| 2026-05-04 07:12 | 37.91555 | -120.68099 | 36992 ft | 427 kts | 182° |
| 2026-05-04 07:12 | 37.85639 | -120.67664 | 36991 ft | 425 kts | 182° |
| 2026-05-04 07:13 | 37.79737 | -120.67229 | 36993 ft | 425 kts | 182° |
| 2026-05-04 07:13 | 37.73822 | -120.66795 | 36970 ft | 425 kts | 182° |
| 2026-05-04 07:14 | 37.59201 | -120.65725 | 36990 ft | 420 kts | 183° |
| 2026-05-04 07:15 | 37.53360 | -120.65301 | 36981 ft | 420 kts | 184° |
| 2026-05-04 07:15 | 37.47576 | -120.64879 | 36990 ft | 418 kts | 184° |
| 2026-05-04 07:16 | 37.41777 | -120.64461 | 36990 ft | 417 kts | 184° |
| 2026-05-04 07:16 | 37.35980 | -120.64047 | 36993 ft | 417 kts | 184° |
| 2026-05-04 07:17 | 37.30185 | -120.62855 | 36991 ft | 426 kts | 175° |
| 2026-05-04 07:17 | 37.24421 | -120.61028 | 36990 ft | 426 kts | 174° |
| 2026-05-04 07:18 | 37.18672 | -120.59164 | 36997 ft | 426 kts | 174° |
| 2026-05-04 07:18 | 37.12921 | -120.57298 | 36992 ft | 426 kts | 175° |
| 2026-05-04 07:19 | 37.07212 | -120.55449 | 36997 ft | 426 kts | 175° |
| 2026-05-04 07:19 | 37.01468 | -120.53591 | 37000 ft | 426 kts | 175° |
| 2026-05-04 07:20 | 36.95726 | -120.51737 | 37005 ft | 426 kts | 175° |
| 2026-05-04 07:20 | 36.89976 | -120.49883 | 37005 ft | 426 kts | 176° |
| 2026-05-04 07:22 | 36.67019 | -120.42509 | 37009 ft | 426 kts | 176° |
| 2026-05-04 07:23 | 36.61311 | -120.40683 | 37011 ft | 426 kts | 176° |
| 2026-05-04 07:23 | 36.55560 | -120.38845 | 37011 ft | 426 kts | 176° |
| 2026-05-04 07:24 | 36.49812 | -120.37012 | 37011 ft | 426 kts | 176° |
| 2026-05-04 07:24 | 36.44059 | -120.35179 | 37022 ft | 426 kts | 176° |
| 2026-05-04 07:26 | 36.21073 | -120.27886 | 37020 ft | 427 kts | 176° |
| 2026-05-04 07:27 | 36.15309 | -120.26064 | 37011 ft | 427 kts | 176° |
| 2026-05-04 07:27 | 36.09540 | -120.24244 | 37029 ft | 428 kts | 176° |
| 2026-05-04 07:28 | 36.03807 | -120.22437 | 37034 ft | 428 kts | 176° |
| 2026-05-04 07:28 | 35.98032 | -120.20620 | 37035 ft | 428 kts | 176° |
| 2026-05-04 07:29 | 35.92269 | -120.18807 | 37040 ft | 426 kts | 177° |
| 2026-05-04 07:29 | 35.86539 | -120.17010 | 37033 ft | 424 kts | 177° |
| 2026-05-04 07:30 | 35.80811 | -120.15218 | 37035 ft | 424 kts | 177° |
| 2026-05-04 07:30 | 35.75085 | -120.13433 | 37034 ft | 423 kts | 179° |
| 2026-05-04 07:31 | 35.69433 | -120.11656 | 37052 ft | 422 kts | 178° |
| 2026-05-04 07:33 | 35.51380 | -119.99309 | 37053 ft | 451 kts | 163° |
| 2026-05-04 07:33 | 35.48711 | -119.97297 | 37055 ft | 450 kts | 163° |
| 2026-05-04 07:33 | 35.43367 | -119.93280 | 37039 ft | 450 kts | 163° |
| 2026-05-04 07:34 | 35.38024 | -119.89272 | 37041 ft | 450 kts | 164° |
| 2026-05-04 07:34 | 35.32734 | -119.85308 | 37046 ft | 448 kts | 165° |
| 2026-05-04 07:35 | 35.27472 | -119.81107 | 37033 ft | 458 kts | 159° |
| 2026-05-04 07:35 | 35.22373 | -119.76366 | 37013 ft | 461 kts | 158° |
| 2026-05-04 07:36 | 35.17285 | -119.71594 | 37043 ft | 459 kts | 160° |
| 2026-05-04 07:38 | 34.99146 | -119.54728 | 31839 ft | 481 kts | 156° |
| 2026-05-04 07:38 | 34.96467 | -119.52244 | 30985 ft | 484 kts | 154° |
| 2026-05-04 07:38 | 34.93834 | -119.49796 | 30473 ft | 478 kts | 154° |
| 2026-05-04 07:38 | 34.91195 | -119.47356 | 29788 ft | 473 kts | 154° |
| 2026-05-04 07:39 | 34.88555 | -119.44964 | 28882 ft | 473 kts | 154° |
| 2026-05-04 07:39 | 34.85900 | -119.42596 | 27833 ft | 473 kts | 155° |
| 2026-05-04 07:39 | 34.83233 | -119.40240 | 27208 ft | 469 kts | 154° |
| 2026-05-04 07:39 | 34.80641 | -119.37892 | 26754 ft | 459 kts | 154° |
| 2026-05-04 07:40 | 34.78108 | -119.35610 | 26433 ft | 446 kts | 154° |
| 2026-05-04 07:40 | 34.75669 | -119.33427 | 26026 ft | 436 kts | 154° |
| 2026-05-04 07:40 | 34.73244 | -119.31286 | 25590 ft | 422 kts | 155° |
| 2026-05-04 07:40 | 34.70889 | -119.29223 | 24912 ft | 413 kts | 155° |
| 2026-05-04 07:41 | 34.68559 | -119.27192 | 24184 ft | 408 kts | 155° |
| 2026-05-04 07:41 | 34.66265 | -119.25195 | 23663 ft | 405 kts | 155° |
| 2026-05-04 07:41 | 34.63973 | -119.23218 | 23108 ft | 403 kts | 154° |
| 2026-05-04 07:41 | 34.61694 | -119.21253 | 22621 ft | 399 kts | 154° |
| 2026-05-04 07:42 | 34.59465 | -119.19342 | 22149 ft | 395 kts | 154° |
| 2026-05-04 07:42 | 34.57228 | -119.17414 | 21700 ft | 392 kts | 154° |
| 2026-05-04 07:42 | 34.55028 | -119.15485 | 21241 ft | 389 kts | 153° |
| 2026-05-04 07:42 | 34.52849 | -119.13563 | 20787 ft | 386 kts | 153° |
| 2026-05-04 07:43 | 34.50690 | -119.11652 | 20324 ft | 382 kts | 152° |
| 2026-05-04 07:43 | 34.48551 | -119.09754 | 19875 ft | 380 kts | 153° |
| 2026-05-04 07:43 | 34.46442 | -119.07884 | 19440 ft | 378 kts | 152° |
| 2026-05-04 07:43 | 34.44314 | -119.06003 | 18985 ft | 376 kts | 153° |
| 2026-05-04 07:44 | 34.42202 | -119.04161 | 18561 ft | 373 kts | 153° |
| 2026-05-04 07:44 | 34.40105 | -119.02342 | 18078 ft | 369 kts | 153° |
| 2026-05-04 07:44 | 34.38026 | -119.00543 | 17658 ft | 365 kts | 152° |
| 2026-05-04 07:44 | 34.35969 | -118.98766 | 17211 ft | 363 kts | 152° |
| 2026-05-04 07:45 | 34.33924 | -118.96977 | 16747 ft | 361 kts | 150° |
| 2026-05-04 07:45 | 34.31920 | -118.95171 | 16300 ft | 358 kts | 150° |
| 2026-05-04 07:45 | 34.29930 | -118.93365 | 15889 ft | 357 kts | 150° |
| 2026-05-04 07:45 | 34.27975 | -118.91593 | 15515 ft | 353 kts | 149° |
| 2026-05-04 07:46 | 34.26041 | -118.89834 | 15250 ft | 343 kts | 149° |
| 2026-05-04 07:46 | 34.24161 | -118.88109 | 14898 ft | 336 kts | 149° |
| 2026-05-04 07:46 | 34.22318 | -118.86416 | 14520 ft | 331 kts | 148° |
| 2026-05-04 07:46 | 34.20496 | -118.84744 | 14135 ft | 326 kts | 148° |
| 2026-05-04 07:47 | 34.18697 | -118.83093 | 13741 ft | 322 kts | 148° |
| 2026-05-04 07:47 | 34.16927 | -118.81453 | 13320 ft | 319 kts | 146° |
| 2026-05-04 07:47 | 34.15252 | -118.79720 | 13017 ft | 313 kts | 143° |
| 2026-05-04 07:49 | 34.04446 | -118.67969 | 10564 ft | 282 kts | 140° |
| 2026-05-04 07:49 | 34.03252 | -118.66104 | 10241 ft | 281 kts | 120° |
| 2026-05-04 07:49 | 34.02706 | -118.63863 | 9939 ft | 277 kts | 102° |
| 2026-05-04 07:50 | 34.02460 | -118.61587 | 9599 ft | 270 kts | 98° |
| 2026-05-04 07:50 | 34.02268 | -118.59373 | 9290 ft | 262 kts | 98° |
| 2026-05-04 07:50 | 34.02081 | -118.57219 | 8995 ft | 256 kts | 98° |
| 2026-05-04 07:50 | 34.01891 | -118.55091 | 8725 ft | 255 kts | 98° |
| 2026-05-04 07:51 | 34.01696 | -118.52965 | 8448 ft | 254 kts | 98° |
| 2026-05-04 07:51 | 34.01500 | -118.50852 | 8164 ft | 252 kts | 98° |
| 2026-05-04 07:51 | 34.01305 | -118.48760 | 7877 ft | 250 kts | 98° |
| 2026-05-04 07:51 | 34.01118 | -118.46687 | 7588 ft | 249 kts | 95° |
| 2026-05-04 07:52 | 34.01212 | -118.44604 | 7240 ft | 250 kts | 82° |
| 2026-05-04 07:52 | 34.01533 | -118.42541 | 6952 ft | 249 kts | 78° |
| 2026-05-04 07:52 | 34.01892 | -118.40499 | 6666 ft | 248 kts | 78° |
| 2026-05-04 07:52 | 34.02247 | -118.38498 | 6383 ft | 246 kts | 78° |
| 2026-05-04 07:53 | 34.02588 | -118.36494 | 6112 ft | 242 kts | 81° |
| 2026-05-04 07:54 | 34.04132 | -118.22832 | 5381 ft | 230 kts | 83° |
| 2026-05-04 07:55 | 34.04354 | -118.20920 | 5025 ft | 228 kts | 86° |
| 2026-05-04 07:55 | 34.04115 | -118.19088 | 4510 ft | 226 kts | 116° |
| 2026-05-04 07:55 | 34.03100 | -118.17704 | 3930 ft | 221 kts | 150° |
| 2026-05-04 07:55 | 34.01668 | -118.17263 | 3582 ft | 207 kts | 182° |
| 2026-05-04 07:56 | 34.00306 | -118.17428 | 3510 ft | 189 kts | 190° |
| 2026-05-04 07:56 | 33.99016 | -118.17665 | 3520 ft | 186 kts | 190° |
| 2026-05-04 07:56 | 33.97735 | -118.17913 | 3520 ft | 185 kts | 192° |
| 2026-05-04 07:56 | 33.96714 | -118.18675 | 3498 ft | 166 kts | 241° |
| 2026-05-04 07:57 | 33.96598 | -118.19987 | 3436 ft | 159 kts | 278° |
| 2026-05-04 07:57 | 33.96758 | -118.21278 | 3251 ft | 155 kts | 276° |
| 2026-05-04 07:57 | 33.96850 | -118.22551 | 3034 ft | 150 kts | 271° |
| 2026-05-04 07:57 | 33.96846 | -118.23750 | 2842 ft | 140 kts | 266° |
| 2026-05-04 07:58 | 33.96767 | -118.24913 | 2648 ft | 139 kts | 264° |
| 2026-05-04 07:58 | 33.96657 | -118.26072 | 2457 ft | 139 kts | 263° |
| 2026-05-04 07:58 | 33.96539 | -118.27225 | 2267 ft | 138 kts | 263° |
| 2026-05-04 07:58 | 33.96424 | -118.28371 | 2087 ft | 137 kts | 263° |
| 2026-05-04 07:59 | 33.96310 | -118.29520 | 1906 ft | 138 kts | 263° |
| 2026-05-04 07:59 | 33.96195 | -118.30665 | 1714 ft | 137 kts | 263° |
| 2026-05-04 07:59 | 33.96080 | -118.31802 | 1501 ft | 137 kts | 263° |
| 2026-05-04 07:59 | 33.95967 | -118.32916 | 1292 ft | 135 kts | 262° |
| 2026-05-04 08:00 | 33.95844 | -118.34063 | 1158 ft | 137 kts | 263° |
| 2026-05-04 08:00 | 33.95725 | -118.35179 | 941 ft | 135 kts | 262° |
| 2026-05-04 08:00 | 33.95599 | -118.36298 | 747 ft | 134 kts | 263° |
| 2026-05-04 08:02 | 33.94944 | -118.42362 | 98 ft | 32 kts | 231° |
| 2026-05-04 08:02 | 33.94834 | -118.42485 | 101 ft | 13 kts | 208° |
| 2026-05-04 08:02 | 33.94771 | -118.42488 | 102 ft | 15 kts | 175° |
| 2026-05-04 08:03 | 33.94681 | -118.42473 | 98 ft | 5 kts | 164° |
| 2026-05-04 08:03 | 33.94669 | -118.42378 | 97 ft | 16 kts | 77° |
| 2026-05-04 08:03 | 33.94680 | -118.42259 | 97 ft | 18 kts | 84° |
| 2026-05-04 08:03 | 33.94702 | -118.42051 | 97 ft | 23 kts | 83° |
| 2026-05-04 08:04 | 33.94715 | -118.41925 | 96 ft | 7 kts | 84° |
| 2026-05-04 08:04 | 33.94721 | -118.41858 | 96 ft | 9 kts | 84° |
| 2026-05-04 08:04 | 33.94728 | -118.41779 | 96 ft | 10 kts | 83° |